Terminal Aerodrome Forecast
Issued by NWS

Home | Current Version | Previous Version | Text Only | Print | Product List | Glossary On
Versions: 1 2 3 4 5 6 7 8 9 10 11 12 13 14 15 16 17 18 19 20 21 22 23 24 25 26 27 28
000
FTUS46 KOTX 211140
TAFPUW
TAF
KPUW 211140Z 2112/2212 VRB03KT P6SM VCSH SCT030 OVC080
     FM211800 28007KT P6SM SCT040 BKN100
     FM220300 VRB03KT P6SM FEW070=

USA.gov is the U.S. government's official web portal to all federal, state and local government web resources and services.